Time;durP1;ratioP1;P1;durP2;ratioP2;P2;SDS_P1;SDS_P2;PMS_P1;PMS_P2;Temp;Humidity;BMP_temperature;BMP_pressure;BME280_temperature;BME280_humidity;BME280_pressure;Samples;Min_cycle;Max_cycle;Signal;HPM_P1;HPM_P2
2022/03/09 00:01:30;;;;;;;;;17.00;14.00;;;;;5.14;45.97;102035.81;5073681;28;12294;-69
2022/03/09 00:03:57;;;;;;;;;13.50;13.50;;;;;5.10;46.54;102048.63;5084334;28;11530;-68
2022/03/09 00:06:23;;;;;;;;;12.75;12.75;;;;;5.18;46.42;102034.56;5081088;28;11543;-68
2022/03/09 00:08:50;;;;;;;;;20.50;17.00;;;;;5.08;46.12;102039.84;5109888;28;11423;-69
2022/03/09 00:11:16;;;;;;;;;17.75;14.00;;;;;5.11;46.19;102036.06;5091492;28;11420;-69
2022/03/09 00:13:43;;;;;;;;;18.00;10.00;;;;;5.05;46.63;102036.56;5074135;28;11462;-68
2022/03/09 00:16:10;;;;;;;;;25.25;19.50;;;;;5.09;46.35;102043.38;5070330;28;12281;-68
2022/03/09 00:18:38;;;;;;;;;19.50;18.50;;;;;5.07;46.21;102048.03;5073369;28;12209;-70
2022/03/09 00:21:04;;;;;;;;;16.00;16.00;;;;;4.97;46.37;102041.69;5071499;28;12241;-69
2022/03/09 00:23:31;;;;;;;;;19.75;15.75;;;;;5.04;46.57;102040.22;5071620;28;11473;-68
2022/03/09 00:25:57;;;;;;;;;17.75;17.75;;;;;5.00;46.38;102034.25;5089703;28;11560;-69
2022/03/09 00:28:24;;;;;;;;;16.00;14.00;;;;;4.92;46.67;102039.34;5072193;28;11619;-69
2022/03/09 00:30:50;;;;;;;;;18.75;14.50;;;;;4.94;46.51;102046.31;5059589;28;11574;-69
2022/03/09 00:33:17;;;;;;;;;18.25;16.75;;;;;4.79;46.85;102047.56;5070792;28;11522;-69
2022/03/09 00:35:44;;;;;;;;;20.00;16.25;;;;;4.86;46.98;102042.53;5083044;28;11478;-69
2022/03/09 00:38:11;;;;;;;;;15.00;13.00;;;;;4.86;47.05;102050.59;5057834;28;12323;-68
2022/03/09 00:40:38;;;;;;;;;14.50;14.50;;;;;4.84;47.46;102047.19;5081207;28;12173;-68
2022/03/09 00:43:04;;;;;;;;;16.50;14.50;;;;;4.82;47.04;102054.50;5072836;28;11450;-68
2022/03/09 00:45:34;;;;;;;;;16.00;15.00;;;;;4.74;47.01;102060.47;5079390;28;11528;-68
2022/03/09 00:48:01;;;;;;;;;18.00;17.50;;;;;4.78;47.16;102058.41;5072375;28;11555;-70
2022/03/09 00:50:27;;;;;;;;;15.75;15.00;;;;;4.69;47.33;102061.78;5069855;28;11522;-69
2022/03/09 00:52:54;;;;;;;;;23.00;19.00;;;;;4.71;46.81;102050.00;5079105;28;12299;-69
2022/03/09 00:55:20;;;;;;;;;18.25;16.00;;;;;4.71;46.69;102050.00;5087752;28;11497;-69
2022/03/09 00:57:46;;;;;;;;;16.00;14.00;;;;;4.73;46.84;102053.41;5072233;28;11489;-68
2022/03/09 01:00:13;;;;;;;;;19.25;17.25;;;;;4.73;46.73;102064.13;5071045;28;11573;-68
2022/03/09 01:02:42;;;;;;;;;11.75;11.75;;;;;4.67;46.77;102059.22;5074054;28;11479;-69
2022/03/09 01:05:11;;;;;;;;;19.75;16.50;;;;;4.66;47.33;102060.22;5074193;28;11439;-68
2022/03/09 01:07:41;;;;;;;;;19.00;16.00;;;;;4.66;47.21;102057.53;5072695;28;11442;-68
2022/03/09 01:10:08;;;;;;;;;16.75;12.75;;;;;4.58;46.87;102055.47;5078599;28;11509;-67
2022/03/09 01:12:35;;;;;;;;;16.00;15.25;;;;;4.54;47.10;102061.19;5070600;28;11437;-67
2022/03/09 01:15:02;;;;;;;;;18.75;13.00;;;;;4.54;47.13;102064.72;5085170;28;11546;-68
2022/03/09 01:17:29;;;;;;;;;20.25;19.00;;;;;4.64;46.91;102060.34;5074759;28;11578;-67
2022/03/09 01:19:55;;;;;;;;;17.75;17.50;;;;;4.58;46.83;102054.59;5071799;28;11603;-68
2022/03/09 01:22:22;;;;;;;;;21.50;16.75;;;;;4.55;46.52;102061.06;5051404;28;11641;-69
2022/03/09 01:24:49;;;;;;;;;15.50;14.75;;;;;4.51;46.83;102051.56;5057451;28;11509;-68
2022/03/09 01:27:15;;;;;;;;;16.25;15.00;;;;;4.53;47.10;102046.06;5073309;28;11537;-68
2022/03/09 01:29:42;;;;;;;;;14.50;14.00;;;;;4.51;47.24;102053.38;5071303;28;11595;-67
2022/03/09 01:32:09;;;;;;;;;14.00;12.25;;;;;4.56;46.80;102045.81;5070834;28;11465;-67
2022/03/09 01:34:35;;;;;;;;;13.00;11.75;;;;;4.58;46.70;102051.91;5065749;28;11434;-67
2022/03/09 01:37:02;;;;;;;;;18.75;14.75;;;;;4.56;47.00;102048.50;5064223;28;11464;-67
2022/03/09 01:39:28;;;;;;;;;14.00;12.50;;;;;4.57;47.42;102053.75;5082909;28;11595;-69
2022/03/09 01:41:55;;;;;;;;;17.50;14.00;;;;;4.58;47.44;102054.59;5079105;28;11467;-68
2022/03/09 01:44:23;;;;;;;;;13.25;12.50;;;;;4.59;47.38;102053.63;5087241;28;11428;-67
2022/03/09 01:46:53;;;;;;;;;17.25;14.50;;;;;4.54;47.58;102056.69;5083700;28;11423;-69
2022/03/09 01:49:22;;;;;;;;;13.00;12.50;;;;;4.61;46.93;102047.16;5067815;28;11432;-67
2022/03/09 01:51:52;;;;;;;;;13.00;11.50;;;;;4.47;47.35;102038.53;5051601;28;11593;-67
2022/03/09 01:54:18;;;;;;;;;16.50;13.00;;;;;4.49;47.81;102037.41;5061277;28;11547;-68
2022/03/09 01:56:46;;;;;;;;;12.75;9.25;;;;;4.39;47.79;102039.09;5080267;28;11585;-69
2022/03/09 01:59:16;;;;;;;;;16.50;13.50;;;;;4.47;48.12;102035.84;5076539;28;11434;-67
2022/03/09 02:01:45;;;;;;;;;18.50;17.00;;;;;4.41;47.91;102030.94;5070108;28;11558;-69
2022/03/09 02:04:12;;;;;;;;;18.00;13.75;;;;;4.46;47.94;102026.06;5070368;28;12093;-69
2022/03/09 02:06:40;;;;;;;;;12.00;11.00;;;;;4.48;48.49;102034.84;5060712;28;11549;-68
2022/03/09 02:11:54;;;;;;;;;24.00;18.00;;;;;4.44;47.84;102030.69;5066535;28;11539;-67
2022/03/09 02:14:30;;;;;;;;;15.25;11.50;;;;;4.42;48.12;102029.94;5062765;28;11440;-67
2022/03/09 02:17:03;;;;;;;;;11.75;11.75;;;;;4.42;47.93;102036.16;5070479;28;11449;-68
2022/03/09 02:19:30;;;;;;;;;20.25;17.75;;;;;4.35;47.82;102026.06;5069676;28;11472;-68
2022/03/09 02:22:20;;;;;;;;;17.00;14.00;;;;;4.36;47.99;102025.94;5074320;28;11561;-67
2022/03/09 02:24:48;;;;;;;;;16.00;15.25;;;;;4.35;47.98;102024.22;5053325;28;11473;-68
2022/03/09 02:27:14;;;;;;;;;18.75;16.75;;;;;4.31;47.97;102022.75;5050685;28;11610;-68
2022/03/09 02:29:41;;;;;;;;;18.50;14.50;;;;;4.30;48.34;102019.22;5061031;28;12335;-67
2022/03/09 02:32:08;;;;;;;;;17.00;14.00;;;;;4.35;48.27;102021.53;5071917;28;11567;-67
2022/03/09 02:34:35;;;;;;;;;16.00;13.75;;;;;4.33;47.96;102021.66;5065064;28;11466;-68
2022/03/09 02:37:01;;;;;;;;;16.00;14.25;;;;;4.36;48.05;102017.03;5070519;28;11462;-67
2022/03/09 02:39:28;;;;;;;;;17.25;14.00;;;;;4.37;47.86;102018.75;5067975;28;11453;-69
2022/03/09 02:41:54;;;;;;;;;13.75;12.00;;;;;4.39;47.53;102025.69;5080803;28;11432;-69
2022/03/09 02:44:21;;;;;;;;;12.00;10.00;;;;;4.42;47.92;102022.75;5071818;28;11564;-67
2022/03/09 02:46:47;;;;;;;;;13.00;13.00;;;;;4.38;48.16;102023.97;5050558;28;11441;-67
2022/03/09 02:49:14;;;;;;;;;16.25;11.00;;;;;4.32;48.28;102021.78;5062248;28;12462;-67
2022/03/09 02:51:40;;;;;;;;;9.50;8.50;;;;;4.34;48.64;102019.84;5078445;28;11452;-67
2022/03/09 02:54:07;;;;;;;;;14.75;12.25;;;;;4.33;48.44;102018.13;5070447;28;11480;-68
2022/03/09 02:56:34;;;;;;;;;16.50;16.50;;;;;4.36;47.89;102019.72;5051897;28;11538;-68
2022/03/09 02:59:02;;;;;;;;;14.25;13.00;;;;;4.37;47.94;102019.59;5068501;28;12178;-67
2022/03/09 03:01:28;;;;;;;;;9.00;9.00;;;;;4.33;48.18;102023.50;5086753;28;11467;-67
2022/03/09 03:03:55;;;;;;;;;14.75;13.25;;;;;4.28;48.47;102020.31;5070903;28;11422;-68
2022/03/09 03:06:21;;;;;;;;;14.25;11.50;;;;;4.30;48.07;102021.06;5068998;28;11441;-67
2022/03/09 03:08:48;;;;;;;;;6.50;4.00;;;;;4.28;48.44;102025.69;5069056;28;11477;-67
2022/03/09 03:11:15;;;;;;;;;11.50;11.00;;;;;4.21;49.12;102021.75;5085028;28;11380;-69
2022/03/09 03:13:45;;;;;;;;;15.50;12.50;;;;;4.21;48.12;102024.44;5071919;28;12200;-67
2022/03/09 03:16:12;;;;;;;;;9.00;7.00;;;;;4.23;48.26;102020.69;5074189;28;11457;-68
2022/03/09 03:18:40;;;;;;;;;12.50;12.50;;;;;4.15;48.79;102020.41;5080445;28;11493;-68
2022/03/09 03:21:07;;;;;;;;;11.50;11.00;;;;;4.05;49.79;102030.13;5074692;28;11529;-67
2022/03/09 03:23:35;;;;;;;;;17.00;12.75;;;;;4.06;50.52;102034.53;5080101;28;12140;-67
2022/03/09 03:26:04;;;;;;;;;11.25;8.00;;;;;3.98;50.51;102026.22;5073623;28;11542;-68
2022/03/09 03:28:32;;;;;;;;;17.00;16.50;;;;;3.94;50.79;102025.56;5072125;28;11478;-69
2022/03/09 03:30:59;;;;;;;;;10.50;9.50;;;;;3.86;51.08;102016.44;5082323;28;11756;-67
2022/03/09 03:33:26;;;;;;;;;12.75;12.00;;;;;3.79;50.55;102012.50;5074025;28;11470;-68
2022/03/09 03:35:52;;;;;;;;;15.00;13.50;;;;;3.62;50.69;102009.28;5074095;28;11658;-68
2022/03/09 03:38:19;;;;;;;;;16.00;14.00;;;;;3.56;50.54;102011.56;5078222;28;11576;-68
2022/03/09 03:40:46;;;;;;;;;17.50;16.50;;;;;3.59;50.35;102005.97;5068121;28;11468;-68
2022/03/09 03:43:12;;;;;;;;;22.25;18.00;;;;;3.57;50.17;102006.09;5064237;28;11524;-68
2022/03/09 03:45:39;;;;;;;;;17.50;14.50;;;;;3.62;50.08;102001.25;5071219;28;11473;-67
2022/03/09 03:48:06;;;;;;;;;12.00;10.00;;;;;3.62;50.44;102003.91;5073816;28;11663;-67
2022/03/09 03:50:34;;;;;;;;;15.25;12.50;;;;;3.58;50.43;101999.78;5073003;28;12189;-67
2022/03/09 03:53:00;;;;;;;;;16.50;14.00;;;;;3.60;49.88;102005.00;5073452;28;11550;-69
2022/03/09 03:55:27;;;;;;;;;18.00;13.25;;;;;3.57;50.06;102011.44;5081144;28;12246;-67
2022/03/09 03:57:53;;;;;;;;;19.50;17.00;;;;;3.57;50.33;102006.09;5090156;28;11534;-68
2022/03/09 04:00:20;;;;;;;;;16.00;15.75;;;;;3.52;50.45;102007.41;5073264;28;11586;-68
2022/03/09 04:02:46;;;;;;;;;19.50;17.00;;;;;3.53;50.53;102006.44;5072882;28;11639;-68
2022/03/09 04:05:13;;;;;;;;;17.50;16.50;;;;;3.51;51.18;102006.56;5073627;28;11473;-67
2022/03/09 04:07:40;;;;;;;;;13.25;13.00;;;;;3.45;51.13;102009.66;5097492;28;11614;-68
2022/03/09 04:10:06;;;;;;;;;14.75;13.50;;;;;3.40;51.18;102009.16;5077780;28;11594;-68
2022/03/09 04:12:34;;;;;;;;;21.25;18.50;;;;;3.40;51.12;102018.06;5057510;28;12201;-71
2022/03/09 04:15:02;;;;;;;;;21.25;17.75;;;;;3.32;51.36;102022.28;5071436;28;12305;-67
2022/03/09 04:17:29;;;;;;;;;12.50;12.00;;;;;3.34;51.74;102023.00;5090099;28;11641;-69
2022/03/09 04:19:55;;;;;;;;;15.00;15.00;;;;;3.31;51.44;102021.41;5093559;28;11521;-69
2022/03/09 04:22:22;;;;;;;;;15.00;14.75;;;;;3.29;51.81;102030.53;5052797;28;11598;-69
2022/03/09 04:24:48;;;;;;;;;12.00;10.50;;;;;3.37;51.59;102025.47;5069042;28;11646;-68
2022/03/09 04:27:14;;;;;;;;;17.75;15.00;;;;;3.30;51.23;102026.88;5057744;28;11487;-68
2022/03/09 04:29:41;;;;;;;;;18.00;15.00;;;;;3.28;50.63;102029.69;5060521;28;11612;-67
2022/03/09 04:32:07;;;;;;;;;21.50;18.25;;;;;3.30;51.36;102029.56;5072583;28;12515;-67
2022/03/09 04:34:34;;;;;;;;;14.75;14.50;;;;;3.22;51.55;102021.22;5072018;28;11529;-70
2022/03/09 04:37:00;;;;;;;;;12.00;12.00;;;;;3.24;51.32;102019.31;5070946;28;11564;-68
2022/03/09 04:39:27;;;;;;;;;14.75;12.50;;;;;3.24;51.38;102017.50;5056221;28;11493;-66
2022/03/09 04:41:53;;;;;;;;;12.00;11.00;;;;;3.26;51.35;102023.59;5052344;28;11500;-68
2022/03/09 04:44:20;;;;;;;;;19.50;16.25;;;;;3.25;51.76;102027.22;5072162;28;11647;-68
2022/03/09 04:46:46;;;;;;;;;15.50;15.50;;;;;3.21;51.75;102017.69;5072112;28;12291;-68
2022/03/09 04:49:13;;;;;;;;;21.75;15.00;;;;;3.16;51.93;102013.66;5072470;28;11497;-66
2022/03/09 04:51:41;;;;;;;;;14.00;12.75;;;;;3.16;52.15;102019.84;5071017;28;11517;-67
2022/03/09 04:54:07;;;;;;;;;18.50;14.75;;;;;3.13;52.01;102020.09;5069962;28;11651;-67
2022/03/09 04:56:34;;;;;;;;;16.75;16.75;;;;;3.11;52.30;102019.34;5083202;28;11641;-68
2022/03/09 04:59:00;;;;;;;;;18.25;14.00;;;;;3.09;52.18;102024.81;5072241;28;11509;-69
2022/03/09 05:01:28;;;;;;;;;15.75;12.00;;;;;3.12;52.25;102022.88;5071970;28;11489;-68
2022/03/09 05:03:55;;;;;;;;;16.50;14.00;;;;;3.05;52.68;102023.31;5057156;28;11579;-68
2022/03/09 05:06:22;;;;;;;;;21.50;17.75;;;;;2.89;53.12;102024.53;5076445;28;11534;-67
2022/03/09 05:08:48;;;;;;;;;16.00;14.00;;;;;2.96;52.81;102031.13;5071476;28;11520;-68
2022/03/09 05:11:14;;;;;;;;;19.50;16.00;;;;;2.91;53.22;102023.47;5071669;28;11497;-69
2022/03/09 05:13:41;;;;;;;;;18.25;9.50;;;;;2.93;53.11;102029.53;5069384;28;11474;-67
2022/03/09 05:16:07;;;;;;;;;13.00;11.00;;;;;2.92;53.18;102027.84;5077214;28;11551;-68
2022/03/09 05:18:37;;;;;;;;;20.75;14.00;;;;;2.96;52.81;102026.66;5088274;28;11475;-68
2022/03/09 05:21:04;;;;;;;;;13.75;12.50;;;;;2.97;53.23;102027.50;5079877;28;11539;-68
2022/03/09 05:23:31;;;;;;;;;12.00;11.00;;;;;2.93;53.20;102029.53;5077232;28;11496;-68
2022/03/09 05:25:57;;;;;;;;;14.50;12.75;;;;;2.95;52.75;102027.63;5050744;28;11530;-68
2022/03/09 05:28:24;;;;;;;;;13.50;11.00;;;;;2.91;52.08;102030.63;5053741;28;11513;-67
2022/03/09 05:30:50;;;;;;;;;13.25;11.25;;;;;2.94;52.49;102030.41;5071548;28;11577;-69
2022/03/09 05:33:17;;;;;;;;;12.25;12.00;;;;;2.87;52.72;102031.81;5056348;28;11557;-69
2022/03/09 05:35:43;;;;;;;;;15.25;15.25;;;;;2.86;52.78;102028.28;5064757;28;11530;-68
2022/03/09 05:38:10;;;;;;;;;15.00;11.50;;;;;2.81;53.28;102029.59;5051407;28;11583;-68
2022/03/09 05:40:39;;;;;;;;;22.00;15.50;;;;;2.84;52.56;102026.69;5066596;28;11567;-68
2022/03/09 05:43:06;;;;;;;;;21.00;17.25;;;;;2.76;52.67;102028.09;5075439;28;11547;-68
2022/03/09 05:45:32;;;;;;;;;17.00;15.75;;;;;2.78;52.87;102034.19;5070902;28;11517;-69
2022/03/09 05:47:59;;;;;;;;;15.75;15.25;;;;;2.76;52.67;102030.78;5077474;28;11553;-68
2022/03/09 05:50:25;;;;;;;;;14.50;10.00;;;;;2.81;53.11;102033.13;5067842;28;11581;-68
2022/03/09 05:52:52;;;;;;;;;19.00;12.75;;;;;2.83;52.80;102035.69;5070022;28;11534;-68
2022/03/09 05:55:19;;;;;;;;;19.50;16.50;;;;;2.77;52.67;102039.66;5086597;28;11452;-67
2022/03/09 05:57:46;;;;;;;;;13.50;13.50;;;;;2.80;53.08;102051.94;5091128;28;12263;-67
2022/03/09 06:00:13;;;;;;;;;9.25;9.25;;;;;2.74;53.00;102048.75;5072969;28;12187;-68
2022/03/09 06:02:40;;;;;;;;;14.00;13.00;;;;;2.81;52.90;102050.97;5080572;28;11419;-68
2022/03/09 06:05:08;;;;;;;;;24.25;16.00;;;;;2.77;52.80;102048.53;5074577;28;11599;-68
2022/03/09 06:07:35;;;;;;;;;17.25;15.50;;;;;2.77;52.84;102055.69;5070872;28;11517;-68
2022/03/09 06:10:02;;;;;;;;;15.00;10.25;;;;;2.71;52.81;102070.31;5070035;28;11655;-67
2022/03/09 06:12:28;;;;;;;;;15.00;10.00;;;;;2.68;52.96;102064.34;5052198;28;11646;-69
2022/03/09 06:14:55;;;;;;;;;14.75;14.75;;;;;2.67;52.97;102068.84;5052464;28;11507;-67
2022/03/09 06:17:21;;;;;;;;;16.50;14.00;;;;;2.60;53.34;102067.56;5078824;28;11547;-67
2022/03/09 06:19:51;;;;;;;;;19.50;15.25;;;;;2.66;53.32;102075.16;5071259;28;11570;-68
2022/03/09 06:22:18;;;;;;;;;17.25;14.00;;;;;2.68;53.20;102073.22;5070013;28;11535;-67
2022/03/09 06:24:44;;;;;;;;;16.25;14.00;;;;;2.73;53.27;102080.94;5075961;28;11503;-67
2022/03/09 06:27:10;;;;;;;;;25.75;19.25;;;;;2.63;53.25;102095.91;5070391;28;11639;-67
2022/03/09 06:29:37;;;;;;;;;13.00;13.00;;;;;2.68;52.73;102080.38;5068958;28;11626;-68
2022/03/09 06:32:04;;;;;;;;;21.00;19.25;;;;;2.57;53.08;102099.00;5065916;28;11674;-67
2022/03/09 06:34:30;;;;;;;;;18.00;16.75;;;;;3.12;52.08;102095.13;5070226;28;11498;-69
2022/03/09 06:36:57;;;;;;;;;20.50;16.25;;;;;4.10;49.84;102097.63;5074102;28;12364;-69
2022/03/09 06:39:25;;;;;;;;;20.25;14.25;;;;;4.81;48.02;102091.22;5075324;28;11642;-69
2022/03/09 06:41:51;;;;;;;;;22.25;16.00;;;;;5.46;45.74;102097.66;5090218;28;11457;-68
2022/03/09 06:44:18;;;;;;;;;25.25;20.25;;;;;5.29;45.57;102095.47;5075230;28;11495;-68
2022/03/09 06:46:46;;;;;;;;;29.25;20.00;;;;;5.14;45.71;102089.50;5071049;28;11517;-68
2022/03/09 06:49:13;;;;;;;;;24.75;22.00;;;;;4.62;47.20;102088.25;5070072;28;11507;-68
2022/03/09 06:51:39;;;;;;;;;28.75;21.50;;;;;4.46;47.76;102093.09;5066620;28;11508;-68
2022/03/09 06:54:05;;;;;;;;;28.00;24.25;;;;;4.40;47.94;102094.41;5074008;28;11550;-68
2022/03/09 06:56:32;;;;;;;;;28.50;21.75;;;;;5.24;46.33;102099.38;5073014;28;11560;-68
2022/03/09 06:58:58;;;;;;;;;25.50;24.25;;;;;5.94;44.79;102097.28;5071084;28;11656;-69
2022/03/09 07:01:25;;;;;;;;;28.25;25.50;;;;;5.97;44.07;102095.22;5074373;28;11504;-69
2022/03/09 07:03:52;;;;;;;;;28.75;22.50;;;;;6.43;43.40;102088.59;5076641;28;11575;-70
2022/03/09 07:06:18;;;;;;;;;28.25;23.50;;;;;6.23;42.71;102087.63;5081985;28;11641;-68
2022/03/09 07:08:44;;;;;;;;;28.50;22.50;;;;;6.21;43.11;102083.38;5074901;28;12299;-69
2022/03/09 07:11:11;;;;;;;;;23.50;20.50;;;;;6.22;43.33;102082.38;5069272;28;11621;-69
2022/03/09 07:13:37;;;;;;;;;24.25;19.25;;;;;6.12;43.07;102085.84;5065132;28;11642;-68
2022/03/09 07:16:04;;;;;;;;;18.50;16.75;;;;;6.33;42.92;102083.16;5074073;28;11568;-67
2022/03/09 07:18:32;;;;;;;;;25.00;22.50;;;;;6.19;43.48;102091.53;5069717;28;11579;-69
2022/03/09 07:20:59;;;;;;;;;27.25;18.25;;;;;5.99;43.31;102100.47;5071582;28;11513;-69
2022/03/09 07:23:25;;;;;;;;;18.25;16.75;;;;;5.78;43.80;102095.84;5068495;28;11562;-68
2022/03/09 07:25:54;;;;;;;;;25.25;21.50;;;;;5.63;44.26;102094.41;5049832;28;11448;-69
2022/03/09 07:28:20;;;;;;;;;28.00;25.00;;;;;5.63;44.00;102102.47;5065272;28;11486;-69
2022/03/09 07:30:47;;;;;;;;;27.00;22.50;;;;;5.69;44.18;102101.09;5069467;28;12345;-69
2022/03/09 07:33:13;;;;;;;;;21.25;19.75;;;;;5.49;44.20;102102.75;5069402;28;11499;-69
2022/03/09 07:35:40;;;;;;;;;23.75;18.50;;;;;5.70;44.46;102097.44;5067762;28;12271;-68
2022/03/09 07:38:07;;;;;;;;;19.00;19.00;;;;;5.77;43.95;102096.81;5068013;28;11459;-68
2022/03/09 07:40:33;;;;;;;;;18.50;13.25;;;;;5.86;43.97;102088.00;5068739;28;11592;-68
2022/03/09 07:43:00;;;;;;;;;26.00;24.25;;;;;5.74;44.24;102093.53;5069357;28;11468;-68
2022/03/09 07:45:27;;;;;;;;;20.25;20.25;;;;;5.76;43.79;102097.81;5064359;28;12324;-69
2022/03/09 07:47:54;;;;;;;;;17.50;15.50;;;;;5.81;45.36;102092.91;5069176;28;11508;-68
2022/03/09 07:50:20;;;;;;;;;27.00;22.75;;;;;5.74;44.03;102093.53;5058936;28;11559;-68
2022/03/09 07:52:46;;;;;;;;;22.50;18.50;;;;;5.83;44.19;102096.31;5060016;28;11476;-70
2022/03/09 07:55:14;;;;;;;;;23.50;18.25;;;;;5.87;43.65;102092.38;5062812;28;11541;-69
2022/03/09 07:57:40;;;;;;;;;15.25;14.50;;;;;6.27;43.00;102094.44;5064739;28;12939;-69
2022/03/09 08:00:08;;;;;;;;;22.25;19.50;;;;;6.33;42.64;102087.69;5063318;28;11436;-68
2022/03/09 08:02:38;;;;;;;;;19.75;18.00;;;;;6.42;42.39;102101.19;5068935;28;11488;-69
2022/03/09 08:05:05;;;;;;;;;25.00;21.00;;;;;6.57;42.43;102100.88;5064233;28;11642;-68
2022/03/09 08:07:31;;;;;;;;;17.25;14.00;;;;;6.85;41.95;102092.13;5064485;28;11509;-69
2022/03/09 08:09:58;;;;;;;;;19.50;18.75;;;;;7.07;41.56;102099.16;5066110;28;11444;-69
2022/03/09 08:12:44;;;;;;;;;23.25;16.25;;;;;7.12;41.06;102096.91;5065759;28;11426;-69
2022/03/09 08:15:11;;;;;;;;;26.00;21.25;;;;;7.19;40.54;102094.53;5061813;28;11399;-71
2022/03/09 08:17:37;;;;;;;;;20.25;20.25;;;;;7.13;41.22;102104.00;5064408;28;12249;-69
2022/03/09 08:20:05;;;;;;;;;22.00;17.75;;;;;7.66;40.14;102096.50;5063971;28;11434;-70
2022/03/09 08:22:32;;;;;;;;;21.75;19.50;;;;;7.75;40.10;102100.22;5066269;28;11595;-69
2022/03/09 08:24:58;;;;;;;;;22.25;20.00;;;;;7.96;39.67;102100.09;5067661;28;11490;-70
2022/03/09 08:27:25;;;;;;;;;26.50;20.50;;;;;8.21;39.26;102104.09;5066350;28;11629;-70
2022/03/09 08:29:51;;;;;;;;;19.25;19.25;;;;;8.28;39.04;102111.47;5062873;28;11449;-67
2022/03/09 08:32:19;;;;;;;;;15.75;15.00;;;;;8.46;39.14;102108.06;5067698;28;11430;-69
2022/03/09 08:34:47;;;;;;;;;21.25;18.75;;;;;8.66;38.14;102112.41;5077767;28;11245;-68
2022/03/09 08:37:14;;;;;;;;;15.00;13.50;;;;;8.86;38.24;102108.69;5082228;28;11569;-68
2022/03/09 08:39:43;;;;;;;;;16.00;16.00;;;;;8.87;38.07;102107.69;5077771;28;11466;-68
2022/03/09 08:42:16;;;;;;;;;20.50;16.00;;;;;9.00;37.96;102120.88;5088978;28;11570;-68
2022/03/09 08:44:43;;;;;;;;;20.75;17.50;;;;;9.24;37.28;102123.91;5074329;28;11387;-68
2022/03/09 08:47:10;;;;;;;;;24.00;17.75;;;;;9.55;37.14;102120.91;5088759;28;11513;-68
2022/03/09 08:49:39;;;;;;;;;23.75;21.50;;;;;9.66;36.84;102122.53;5075559;28;11615;-68
2022/03/09 08:52:08;;;;;;;;;17.75;15.50;;;;;9.86;36.56;102121.41;5071792;28;11460;-70
2022/03/09 08:54:34;;;;;;;;;21.50;17.50;;;;;10.01;36.10;102119.03;5074913;28;11194;-67
2022/03/09 08:57:01;;;;;;;;;26.25;17.00;;;;;9.90;36.49;102117.41;5084902;28;11178;-67
2022/03/09 08:59:28;;;;;;;;;11.25;10.25;;;;;9.81;36.43;102127.28;5086038;28;11136;-68
2022/03/09 09:01:54;;;;;;;;;20.50;17.25;;;;;10.20;36.21;102124.31;5059246;28;11081;-69
2022/03/09 09:04:24;;;;;;;;;17.50;17.00;;;;;10.47;35.42;102112.56;5081315;28;10953;-67
2022/03/09 09:06:51;;;;;;;;;18.25;16.25;;;;;10.18;35.79;102116.34;5075318;28;10941;-66
2022/03/09 09:09:18;;;;;;;;;24.00;20.25;;;;;10.43;35.59;102114.75;5074773;28;10910;-67
2022/03/09 09:11:45;;;;;;;;;17.25;17.25;;;;;10.74;35.30;102117.84;5077576;28;10646;-70
2022/03/09 09:14:11;;;;;;;;;23.50;22.00;;;;;10.90;35.38;102127.91;5072021;28;10660;-67
2022/03/09 09:16:43;;;;;;;;;26.75;22.25;;;;;11.01;34.90;102122.25;5096677;28;11182;-67
2022/03/09 09:19:10;;;;;;;;;24.00;16.75;;;;;11.34;34.93;102120.53;5080776;28;11229;-71
2022/03/09 09:21:37;;;;;;;;;16.50;14.50;;;;;11.24;34.56;102116.28;5070529;28;10764;-67
2022/03/09 09:24:05;;;;;;;;;23.75;21.00;;;;;10.55;34.97;102118.03;5075959;28;10709;-68
2022/03/09 09:26:31;;;;;;;;;28.25;23.75;;;;;10.82;35.25;102121.59;5069795;28;10992;-69
2022/03/09 09:29:13;;;;;;;;;23.50;23.00;;;;;10.85;34.90;102121.28;5073660;28;10797;-67
2022/03/09 09:31:40;;;;;;;;;17.50;11.75;;;;;11.04;35.09;102107.53;5070726;28;11016;-69
2022/03/09 09:34:08;;;;;;;;;17.75;14.75;;;;;11.11;34.73;102100.44;5078319;28;11621;-68
2022/03/09 09:36:35;;;;;;;;;19.50;17.25;;;;;10.84;35.08;102104.19;5071356;28;10815;-68
2022/03/09 09:39:03;;;;;;;;;21.25;18.50;;;;;11.21;34.97;102094.91;5071924;28;10531;-68
2022/03/09 09:41:33;;;;;;;;;26.50;23.50;;;;;11.25;35.10;102099.00;5067910;28;10734;-68
2022/03/09 09:44:03;;;;;;;;;25.50;23.25;;;;;11.36;35.00;102098.69;5071384;28;10847;-69
2022/03/09 09:46:30;;;;;;;;;18.25;18.00;;;;;11.39;35.04;102101.06;5074793;28;10903;-68
2022/03/09 09:48:57;;;;;;;;;23.50;22.75;;;;;11.38;35.03;102102.94;5072047;28;11706;-68
2022/03/09 09:51:23;;;;;;;;;24.50;24.50;;;;;11.37;34.69;102105.81;5080229;28;10945;-69
2022/03/09 09:53:50;;;;;;;;;18.25;17.00;;;;;11.29;34.82;102112.06;5071498;28;11577;-68
2022/03/09 09:56:17;;;;;;;;;30.00;25.00;;;;;11.32;34.58;102111.72;5078678;28;10767;-68
2022/03/09 09:58:44;;;;;;;;;22.75;19.25;;;;;11.24;34.22;102113.56;5070382;28;11111;-69
2022/03/09 10:01:11;;;;;;;;;23.75;21.00;;;;;11.02;34.16;102112.25;5069461;28;10830;-70
2022/03/09 10:03:38;;;;;;;;;20.25;17.00;;;;;11.34;34.85;102114.28;5070437;28;10808;-68
2022/03/09 10:06:05;;;;;;;;;27.00;19.50;;;;;11.61;34.43;102115.91;5074149;28;11241;-70
2022/03/09 10:08:35;;;;;;;;;21.50;19.25;;;;;11.71;34.39;102111.19;5072408;28;10741;-69
2022/03/09 10:11:04;;;;;;;;;26.75;22.75;;;;;11.76;34.08;102116.13;5074604;28;10550;-70
2022/03/09 10:13:36;;;;;;;;;24.25;22.00;;;;;11.69;34.32;102118.66;5074685;28;10885;-69
2022/03/09 10:16:12;;;;;;;;;39.25;28.00;;;;;11.68;34.39;102119.66;5070582;28;10978;-67
2022/03/09 10:18:54;;;;;;;;;24.00;18.50;;;;;11.83;34.33;102123.47;5068809;28;11530;-68
2022/03/09 10:21:28;;;;;;;;;25.00;19.75;;;;;11.93;33.90;102110.63;5072727;28;10615;-66
2022/03/09 10:23:59;;;;;;;;;27.75;23.50;;;;;11.97;34.07;102114.69;5079623;28;10526;-67
2022/03/09 10:26:46;;;;;;;;;19.75;17.00;;;;;11.98;34.42;102113.66;5079032;28;11353;-69
2022/03/09 10:29:16;;;;;;;;;29.25;26.25;;;;;12.03;34.19;102113.16;5082808;28;10816;-69
2022/03/09 10:31:45;;;;;;;;;26.75;25.00;;;;;12.01;34.27;102115.19;5077443;28;10996;-68
2022/03/09 10:34:19;;;;;;;;;25.25;21.50;;;;;12.05;33.89;102110.28;5075164;28;10970;-69
2022/03/09 10:36:56;;;;;;;;;29.00;24.25;;;;;12.31;34.32;102110.97;5078735;28;10869;-70
2022/03/09 10:39:25;;;;;;;;;22.25;20.50;;;;;12.37;34.08;102106.72;5076262;28;10873;-68
2022/03/09 10:41:52;;;;;;;;;32.00;25.75;;;;;12.35;34.38;102106.91;5071969;28;10493;-68
2022/03/09 10:44:19;;;;;;;;;28.00;24.00;;;;;12.30;34.14;102109.28;5075400;28;10729;-69
2022/03/09 10:46:48;;;;;;;;;33.50;26.50;;;;;12.16;34.36;102108.09;5059361;28;10552;-69
2022/03/09 10:49:19;;;;;;;;;28.50;24.00;;;;;11.94;34.41;102103.31;5073818;28;10791;-68
2022/03/09 10:51:50;;;;;;;;;32.75;21.75;;;;;12.12;34.47;102103.16;5072374;28;11375;-68
2022/03/09 10:54:29;;;;;;;;;31.00;29.25;;;;;12.18;34.40;102110.66;5083170;28;10775;-69
2022/03/09 10:57:07;;;;;;;;;31.75;26.75;;;;;12.20;34.63;102109.47;5069932;28;10837;-67
2022/03/09 10:59:46;;;;;;;;;29.00;24.50;;;;;12.25;34.03;102098.94;5068760;28;10663;-68
2022/03/09 11:02:16;;;;;;;;;24.75;18.75;;;;;12.46;34.62;102092.16;5068617;28;10723;-68
2022/03/09 11:04:42;;;;;;;;;25.00;22.50;;;;;12.42;34.98;102086.22;5069333;28;10687;-68
2022/03/09 11:07:11;;;;;;;;;38.00;26.00;;;;;12.32;34.17;102094.50;5081001;28;11792;-68
2022/03/09 11:09:38;;;;;;;;;28.00;25.00;;;;;12.23;33.90;102089.25;5069984;28;10812;-68
2022/03/09 11:12:05;;;;;;;;;27.75;26.50;;;;;12.08;33.46;102086.34;5086341;28;10573;-68
2022/03/09 11:14:32;;;;;;;;;31.75;26.75;;;;;12.14;34.87;102093.81;5072375;28;10773;-68
2022/03/09 11:17:00;;;;;;;;;28.75;23.75;;;;;12.07;33.91;102086.53;5066842;28;10938;-67
2022/03/09 11:19:27;;;;;;;;;37.25;29.00;;;;;11.81;33.91;102078.50;5074217;28;10637;-68
2022/03/09 11:21:54;;;;;;;;;27.50;22.75;;;;;11.95;33.80;102077.88;5074117;28;10726;-69